createdAt,value
2019-01-16T00:01:38.126Z,6.90
2019-01-16T00:04:30.105Z,6.80
2019-01-16T00:07:17.927Z,6.90
2019-01-16T00:10:06.010Z,6.90
2019-01-16T00:12:44.484Z,6.90
2019-01-16T00:15:39.841Z,6.80
2019-01-16T00:18:48.055Z,6.80
2019-01-16T00:21:31.248Z,6.90
2019-01-16T00:24:19.390Z,6.80
2019-01-16T00:27:07.467Z,6.90
2019-01-16T00:29:56.679Z,6.90
2019-01-16T00:32:48.433Z,6.80
2019-01-16T00:35:30.621Z,6.90
2019-01-16T00:38:35.196Z,6.90
2019-01-16T00:41:39.482Z,6.90
2019-01-16T00:44:40.958Z,6.90
2019-01-16T00:47:25.692Z,6.90
2019-01-16T00:50:27.271Z,6.90
2019-01-16T00:53:12.069Z,6.90
2019-01-16T00:56:07.539Z,6.90
2019-01-16T00:59:08.907Z,6.90
2019-01-16T01:01:57.298Z,6.90
2019-01-16T01:04:55.371Z,7.00
2019-01-16T01:07:51.853Z,7.00
2019-01-16T01:10:30.085Z,7.00
2019-01-16T01:13:19.944Z,7.00
2019-01-16T01:16:17.457Z,6.90
2019-01-16T01:19:21.789Z,7.00
2019-01-16T01:22:08.628Z,7.00
2019-01-16T01:24:57.915Z,7.00
2019-01-16T01:27:45.643Z,7.00
2019-01-16T01:30:43.768Z,7.00
2019-01-16T01:33:33.650Z,7.00
2019-01-16T01:36:21.644Z,7.00
2019-01-16T01:39:10.806Z,7.00
2019-01-16T01:42:15.438Z,6.90
2019-01-16T01:45:04.611Z,6.90
2019-01-16T01:47:52.009Z,6.90
2019-01-16T01:50:48.355Z,6.90
2019-01-16T01:53:36.523Z,6.90
2019-01-16T01:56:33.974Z,6.90
2019-01-16T01:59:11.697Z,6.90
2019-01-16T02:01:57.352Z,6.90
2019-01-16T02:04:45.289Z,6.90
2019-01-16T02:10:33.665Z,6.90
2019-01-16T02:13:21.928Z,6.90
2019-01-16T02:16:06.366Z,6.90
2019-01-16T02:18:59.070Z,6.90
2019-01-16T02:21:47.175Z,6.80
2019-01-16T02:24:39.200Z,6.80
2019-01-16T02:27:24.205Z,6.90
2019-01-16T02:30:15.544Z,6.90
2019-01-16T02:33:10.881Z,6.90
2019-01-16T02:36:10.806Z,7.00
2019-01-16T02:38:58.593Z,6.90
2019-01-16T02:41:36.200Z,6.90
2019-01-16T02:44:37.717Z,6.90
2019-01-16T02:47:32.778Z,6.90
2019-01-16T02:50:24.981Z,7.00
2019-01-16T02:53:20.145Z,6.90
2019-01-16T02:56:21.342Z,6.90
2019-01-16T02:59:01.634Z,6.80
2019-01-16T03:01:50.898Z,6.80
2019-01-16T03:04:40.166Z,6.80
2019-01-16T03:07:41.414Z,6.90
2019-01-16T03:10:20.244Z,6.80
2019-01-16T03:13:09.418Z,6.80
2019-01-16T03:16:17.056Z,6.80
2019-01-16T03:19:24.563Z,6.80
2019-01-16T03:22:13.758Z,6.80
2019-01-16T03:25:01.026Z,6.80
2019-01-16T03:28:08.241Z,6.80
2019-01-16T03:31:15.527Z,6.80
2019-01-16T03:34:10.374Z,6.80
2019-01-16T03:37:03.730Z,6.80
2019-01-16T03:39:55.909Z,6.80
2019-01-16T03:42:28.243Z,6.80
2019-01-16T03:45:26.817Z,6.70
2019-01-16T03:48:22.927Z,6.70
2019-01-16T03:51:17.263Z,6.70
2019-01-16T03:54:23.150Z,6.70
2019-01-16T03:57:15.219Z,6.70
2019-01-16T04:00:11.370Z,6.70
2019-01-16T04:02:56.790Z,6.80
2019-01-16T04:05:42.713Z,6.70
2019-01-16T04:08:25.307Z,6.80
2019-01-16T04:11:24.936Z,6.80
2019-01-16T04:14:13.155Z,6.80
2019-01-16T04:17:01.877Z,6.70
2019-01-16T04:19:54.163Z,6.70
2019-01-16T04:22:56.890Z,6.60
2019-01-16T04:25:57.973Z,6.60
2019-01-16T04:28:57.905Z,6.70
2019-01-16T04:31:38.458Z,6.60
2019-01-16T04:34:26.490Z,6.60
2019-01-16T04:37:18.643Z,6.60
2019-01-16T04:40:06.155Z,6.60
2019-01-16T04:42:50.938Z,6.60
2019-01-16T04:45:40.080Z,6.60
2019-01-16T04:48:32.342Z,6.60
2019-01-16T04:51:20.087Z,6.60
2019-01-16T04:54:07.813Z,6.60
2019-01-16T04:59:59.632Z,6.60
2019-01-16T05:02:48.838Z,6.60
2019-01-16T05:05:49.630Z,6.60
2019-01-16T05:08:44.742Z,6.60
2019-01-16T05:11:32.991Z,6.60
2019-01-16T05:14:18.195Z,6.60
2019-01-16T05:17:07.441Z,6.60
2019-01-16T05:20:02.913Z,6.60
2019-01-16T05:22:40.421Z,6.60
2019-01-16T05:25:32.609Z,6.70
2019-01-16T05:28:30.704Z,6.60
2019-01-16T05:31:19.151Z,6.60
2019-01-16T05:34:06.926Z,6.60
2019-01-16T05:37:06.166Z,6.60
2019-01-16T05:39:56.711Z,6.60
2019-01-16T05:42:51.949Z,6.70
2019-01-16T05:45:39.990Z,6.70
2019-01-16T05:48:27.697Z,6.70
2019-01-16T05:51:19.795Z,6.70
2019-01-16T05:54:15.327Z,6.60
2019-01-16T05:57:01.361Z,6.70
2019-01-16T05:59:52.527Z,6.70
2019-01-16T06:02:40.288Z,6.60
2019-01-16T06:05:22.196Z,6.60
2019-01-16T06:08:11.359Z,6.60
2019-01-16T06:11:00.245Z,6.60
2019-01-16T06:13:48.052Z,6.60
2019-01-16T06:16:34.852Z,6.60
2019-01-16T06:19:30.070Z,6.60
2019-01-16T06:22:23.655Z,6.60
2019-01-16T06:25:12.262Z,6.60
2019-01-16T06:28:00.278Z,6.50
2019-01-16T06:30:46.459Z,6.50
2019-01-16T06:33:35.621Z,6.50
2019-01-16T06:36:31.054Z,6.50
2019-01-16T06:39:20.240Z,6.50
2019-01-16T06:42:04.126Z,6.50
2019-01-16T06:44:56.300Z,6.50
2019-01-16T06:47:41.104Z,6.50
2019-01-16T06:50:22.214Z,6.40
2019-01-16T06:53:02.550Z,6.40
2019-01-16T06:55:51.397Z,6.40
2019-01-16T06:58:39.161Z,6.40
2019-01-16T07:01:23.434Z,6.40
2019-01-16T07:04:09.160Z,6.30
2019-01-16T07:07:07.508Z,6.30
2019-01-16T07:09:56.718Z,6.30
2019-01-16T07:13:02.528Z,6.30
2019-01-16T07:16:06.681Z,6.30
2019-01-16T07:19:03.099Z,6.30
2019-01-16T07:21:52.232Z,6.30
2019-01-16T07:24:41.389Z,6.30
2019-01-16T07:27:29.647Z,6.30
2019-01-16T07:30:25.178Z,6.30
2019-01-16T07:33:13.050Z,6.30
2019-01-16T07:36:01.084Z,6.20
2019-01-16T07:38:50.263Z,6.30
2019-01-16T07:41:40.221Z,6.30
2019-01-16T07:44:27.664Z,6.30
2019-01-16T07:47:08.118Z,6.30
2019-01-16T07:50:03.182Z,6.30
2019-01-16T07:52:55.183Z,6.20
2019-01-16T07:55:43.854Z,6.20
2019-01-16T07:58:38.852Z,6.20
2019-01-16T08:01:26.625Z,6.20
2019-01-16T08:04:30.826Z,6.20
2019-01-16T08:07:30.831Z,6.20
2019-01-16T08:10:18.953Z,6.20
2019-01-16T08:13:07.085Z,6.10
2019-01-16T08:15:59.370Z,6.10
2019-01-16T08:18:57.642Z,6.20
2019-01-16T08:21:45.488Z,6.20
2019-01-16T08:24:34.693Z,6.10
2019-01-16T08:27:42.581Z,6.10
2019-01-16T08:30:30.732Z,6.10
2019-01-16T08:33:26.190Z,6.20
2019-01-16T08:36:27.408Z,6.10
2019-01-16T08:39:19.598Z,6.10
2019-01-16T08:42:07.408Z,6.10
2019-01-16T08:44:59.567Z,6.10
2019-01-16T08:47:51.585Z,6.10
2019-01-16T08:50:40.744Z,6.10
2019-01-16T08:53:45.376Z,6.10
2019-01-16T08:56:34.790Z,6.10
2019-01-16T08:59:25.059Z,6.10
2019-01-16T09:02:10.419Z,6.10
2019-01-16T09:05:05.111Z,6.20
2019-01-16T09:08:03.279Z,6.00
2019-01-16T09:10:58.766Z,6.00
2019-01-16T09:13:46.851Z,6.00
2019-01-16T09:16:39.200Z,6.00
2019-01-16T09:19:17.338Z,6.00
2019-01-16T09:22:09.425Z,6.00
2019-01-16T09:25:06.178Z,6.00
2019-01-16T09:27:54.227Z,6.10
2019-01-16T09:30:43.661Z,6.10
2019-01-16T09:33:42.114Z,6.10
2019-01-16T09:36:31.286Z,6.20
2019-01-16T09:39:14.158Z,6.20
2019-01-16T09:41:58.227Z,6.30
2019-01-16T09:44:36.326Z,6.30
2019-01-16T09:47:24.218Z,6.20
2019-01-16T09:50:13.463Z,6.20
2019-01-16T09:53:01.921Z,6.20
2019-01-16T09:56:02.069Z,6.20
2019-01-16T09:59:11.464Z,6.20
2019-01-16T10:01:59.316Z,6.20
2019-01-16T10:04:57.014Z,6.30
2019-01-16T10:07:55.254Z,6.40
2019-01-16T10:11:06.362Z,6.40
2019-01-16T10:13:54.188Z,6.50
2019-01-16T10:16:47.520Z,6.40
2019-01-16T10:19:36.285Z,6.40
2019-01-16T10:22:29.008Z,6.30
2019-01-16T10:25:21.397Z,6.40
2019-01-16T10:28:13.500Z,6.40
2019-01-16T10:31:14.713Z,6.40
2019-01-16T10:34:35.234Z,6.30
2019-01-16T10:37:36.740Z,6.30
2019-01-16T10:40:25.434Z,6.40
2019-01-16T10:43:23.889Z,6.40
2019-01-16T10:46:31.697Z,6.40
2019-01-16T10:49:31.042Z,6.40
2019-01-16T10:52:26.562Z,6.40
2019-01-16T10:55:13.841Z,6.40
2019-01-16T10:58:15.514Z,6.40
2019-01-16T11:00:58.205Z,6.40
2019-01-16T11:03:56.457Z,6.40
2019-01-16T11:06:58.194Z,6.30
2019-01-16T11:10:05.642Z,6.30
2019-01-16T11:13:01.782Z,6.30
2019-01-16T11:15:54.239Z,6.30
2019-01-16T11:18:52.834Z,6.30
2019-01-16T11:21:43.182Z,6.30
2019-01-16T11:24:44.245Z,6.40
2019-01-16T11:27:49.069Z,6.40
2019-01-16T11:30:50.645Z,6.40
2019-01-16T11:33:39.827Z,6.50
2019-01-16T11:36:32.063Z,6.50
2019-01-16T11:39:24.051Z,6.60
2019-01-16T11:42:08.914Z,6.70
2019-01-16T11:44:58.140Z,6.80
2019-01-16T11:47:50.156Z,6.80
2019-01-16T11:50:42.423Z,6.70
2019-01-16T11:53:30.255Z,6.80
2019-01-16T11:56:23.453Z,6.70
2019-01-16T11:59:25.121Z,6.70
2019-01-16T12:02:13.440Z,6.70
2019-01-16T12:05:17.727Z,6.70
2019-01-16T12:08:13.637Z,6.60
2019-01-16T12:11:18.205Z,6.60
2019-01-16T12:14:07.379Z,6.60
2019-01-16T12:16:59.339Z,6.70
2019-01-16T12:19:35.700Z,6.80
2019-01-16T12:22:24.280Z,6.80
2019-01-16T12:25:13.455Z,6.80
2019-01-16T12:27:54.170Z,6.80
2019-01-16T12:30:39.948Z,6.90
2019-01-16T12:33:20.113Z,6.80
2019-01-16T12:36:27.726Z,6.80
2019-01-16T12:39:14.405Z,6.80
2019-01-16T12:42:02.872Z,6.80
2019-01-16T12:44:47.311Z,6.90
2019-01-16T12:47:29.497Z,7.00
2019-01-16T12:50:21.598Z,7.00
2019-01-16T12:53:13.467Z,7.00
2019-01-16T12:56:02.823Z,7.00
2019-01-16T12:58:52.139Z,7.00
2019-01-16T13:01:41.456Z,7.00
2019-01-16T13:04:45.713Z,7.00
2019-01-16T13:07:53.343Z,7.00
2019-01-16T13:10:35.314Z,7.00
2019-01-16T13:13:30.557Z,7.00
2019-01-16T13:16:34.727Z,7.10
2019-01-16T13:19:24.584Z,7.20
2019-01-16T13:22:07.603Z,7.20
2019-01-16T13:24:46.671Z,7.20
2019-01-16T13:27:39.209Z,7.20
2019-01-16T13:30:29.341Z,7.10
2019-01-16T13:33:13.230Z,7.20
2019-01-16T13:36:08.803Z,7.20
2019-01-16T13:39:04.017Z,7.20
2019-01-16T13:41:54.591Z,7.20
2019-01-16T13:44:46.656Z,7.10
2019-01-16T13:47:43.684Z,7.20
2019-01-16T13:50:45.433Z,7.20
2019-01-16T13:53:40.787Z,7.20
2019-01-16T13:56:36.338Z,7.20
2019-01-16T13:59:32.186Z,7.20
2019-01-16T14:02:20.171Z,7.10
2019-01-16T14:05:09.637Z,7.10
2019-01-16T14:07:56.994Z,7.10
2019-01-16T14:11:01.929Z,7.00
2019-01-16T14:14:00.820Z,7.00
2019-01-16T14:16:53.478Z,7.00
2019-01-16T14:19:53.513Z,7.00
2019-01-16T14:22:55.354Z,6.90
2019-01-16T14:25:47.643Z,6.90
2019-01-16T14:28:45.939Z,6.80
2019-01-16T14:31:43.281Z,6.80
2019-01-16T14:34:35.636Z,6.70
2019-01-16T14:37:34.545Z,6.60
2019-01-16T14:40:21.198Z,6.60
2019-01-16T14:43:10.441Z,6.60
2019-01-16T14:46:15.151Z,6.50
2019-01-16T14:49:19.423Z,6.60
2019-01-16T14:51:59.760Z,6.60
2019-01-16T14:55:06.101Z,6.50
2019-01-16T14:57:52.595Z,6.50
2019-01-16T15:00:47.495Z,6.50
2019-01-16T15:03:55.056Z,6.50
2019-01-16T15:06:47.329Z,6.40
2019-01-16T15:09:36.630Z,6.50
2019-01-16T15:12:28.680Z,6.50
2019-01-16T15:15:36.926Z,6.50
2019-01-16T15:18:33.499Z,6.50
2019-01-16T15:21:23.896Z,6.40
2019-01-16T15:24:07.810Z,6.40
2019-01-16T15:27:09.087Z,6.40
2019-01-16T15:30:13.677Z,6.30
2019-01-16T15:33:01.414Z,6.30
2019-01-16T15:35:49.252Z,6.10
2019-01-16T15:38:37.080Z,6.10
2019-01-16T15:41:29.193Z,6.00
2019-01-16T15:44:21.441Z,6.10
2019-01-16T15:47:26.085Z,6.00
2019-01-16T15:50:13.939Z,5.90
2019-01-16T15:53:12.306Z,5.70
2019-01-16T15:55:52.492Z,5.70
2019-01-16T15:58:47.547Z,5.70
2019-01-16T16:01:27.388Z,5.60
2019-01-16T16:04:31.609Z,5.50
2019-01-16T16:07:23.691Z,5.40
2019-01-16T16:10:04.254Z,5.40
2019-01-16T16:12:51.753Z,5.40
2019-01-16T16:15:50.874Z,5.40
2019-01-16T16:18:36.831Z,5.50
2019-01-16T16:21:24.882Z,5.50
2019-01-16T16:24:26.480Z,5.60
2019-01-16T16:27:12.567Z,5.50
2019-01-16T16:30:14.060Z,5.50
2019-01-16T16:33:15.590Z,5.50
2019-01-16T16:36:17.661Z,5.50
2019-01-16T16:39:07.319Z,5.40
2019-01-16T16:42:08.848Z,5.50
2019-01-16T16:45:05.087Z,5.50
2019-01-16T16:48:03.369Z,5.50
2019-01-16T16:51:07.721Z,5.50
2019-01-16T16:53:56.919Z,5.50
2019-01-16T16:56:57.578Z,5.40
2019-01-16T16:59:56.551Z,5.40
2019-01-16T17:02:37.738Z,5.50
2019-01-16T17:05:20.247Z,5.40
2019-01-16T17:08:13.501Z,5.40
2019-01-16T17:10:56.286Z,5.40
2019-01-16T17:13:49.023Z,5.30
2019-01-16T17:16:34.045Z,5.20
2019-01-16T17:19:20.788Z,5.10
2019-01-16T17:22:22.268Z,5.10
2019-01-16T17:25:14.814Z,5.10
2019-01-16T17:28:02.893Z,5.10
2019-01-16T17:31:03.466Z,5.10
2019-01-16T17:33:51.652Z,5.10
2019-01-16T17:36:43.774Z,5.10
2019-01-16T17:39:48.581Z,5.10
2019-01-16T17:42:41.191Z,5.10
2019-01-16T17:45:29.040Z,5.00
2019-01-16T17:48:36.625Z,5.00
2019-01-16T17:51:25.543Z,5.00
2019-01-16T17:54:07.265Z,4.90
2019-01-16T17:56:55.284Z,5.00
2019-01-16T17:59:43.207Z,4.90
2019-01-16T18:02:33.561Z,4.90
2019-01-16T18:05:42.398Z,4.90
2019-01-16T18:08:41.663Z,4.90
2019-01-16T18:11:42.931Z,5.00
2019-01-16T18:14:32.276Z,5.00
2019-01-16T18:17:21.510Z,5.00
2019-01-16T18:20:16.850Z,4.90
2019-01-16T18:23:18.197Z,5.00
2019-01-16T18:26:22.769Z,4.90
2019-01-16T18:29:14.571Z,5.00
2019-01-16T18:32:17.127Z,5.00
2019-01-16T18:34:57.438Z,5.00
2019-01-16T18:37:36.866Z,5.00
2019-01-16T18:40:38.666Z,4.90
2019-01-16T18:43:26.771Z,4.90
2019-01-16T18:46:25.054Z,4.80
2019-01-16T18:49:04.894Z,4.90
2019-01-16T18:51:56.894Z,4.90
2019-01-16T18:54:55.500Z,4.80
2019-01-16T18:57:53.980Z,4.90
2019-01-16T19:00:49.027Z,4.90
2019-01-16T19:03:44.309Z,4.80
2019-01-16T19:06:51.758Z,4.80
2019-01-16T19:09:35.387Z,4.80
2019-01-16T19:12:39.923Z,4.80
2019-01-16T19:15:39.226Z,4.70
2019-01-16T19:18:37.861Z,4.60
2019-01-16T19:21:28.091Z,4.50
2019-01-16T19:24:16.336Z,4.40
2019-01-16T19:27:11.946Z,4.40
2019-01-16T19:30:04.063Z,4.30
2019-01-16T19:33:02.378Z,4.30
2019-01-16T19:35:41.273Z,4.30
2019-01-16T19:38:25.873Z,4.30
2019-01-16T19:41:17.973Z,4.40
2019-01-16T19:44:19.594Z,4.40
2019-01-16T19:47:24.277Z,4.50
2019-01-16T19:50:25.904Z,4.60
2019-01-16T19:53:06.167Z,4.80
2019-01-16T19:55:54.326Z,4.80
2019-01-16T19:58:42.358Z,5.00
2019-01-16T20:01:28.971Z,5.00
2019-01-16T20:04:17.059Z,5.10
2019-01-16T20:07:12.180Z,5.10
2019-01-16T20:10:13.359Z,5.20
2019-01-16T20:13:08.626Z,5.20
2019-01-16T20:15:56.218Z,5.30
2019-01-16T20:18:45.522Z,5.30
2019-01-16T20:21:53.231Z,5.40
2019-01-16T20:24:41.054Z,5.40
2019-01-16T20:27:30.205Z,5.50
2019-01-16T20:30:22.539Z,5.50
2019-01-16T20:33:10.835Z,5.50
2019-01-16T20:35:58.842Z,5.50
2019-01-16T20:39:01.255Z,5.50
2019-01-16T20:41:51.270Z,5.50
2019-01-16T20:44:35.827Z,5.70
2019-01-16T20:50:36.370Z,5.70
2019-01-16T20:53:28.464Z,5.70
2019-01-16T20:56:16.481Z,5.70
2019-01-16T20:59:04.901Z,5.70
2019-01-16T21:01:53.012Z,5.80
2019-01-16T21:04:51.400Z,5.80
2019-01-16T21:07:26.948Z,5.80
2019-01-16T21:10:10.294Z,5.70
2019-01-16T21:12:58.529Z,5.80
2019-01-16T21:15:51.913Z,5.70
2019-01-16T21:18:48.936Z,5.70
2019-01-16T21:21:34.977Z,5.70
2019-01-16T21:24:27.390Z,5.80
2019-01-16T21:27:07.744Z,5.80
2019-01-16T21:29:55.881Z,5.80
2019-01-16T21:32:51.691Z,5.80
2019-01-16T21:35:33.697Z,5.80
2019-01-16T21:38:23.141Z,5.80
2019-01-16T21:41:09.192Z,5.80
2019-01-16T21:44:08.450Z,5.80
2019-01-16T21:47:00.974Z,5.80
2019-01-16T21:49:59.420Z,5.80
2019-01-16T21:52:41.923Z,5.80
2019-01-16T21:55:36.622Z,5.80
2019-01-16T21:58:25.112Z,5.80
2019-01-16T22:01:17.603Z,5.80
2019-01-16T22:04:22.198Z,5.80
2019-01-16T22:07:14.298Z,5.80
2019-01-16T22:10:14.989Z,5.80
2019-01-16T22:13:10.531Z,5.80
2019-01-16T22:16:18.142Z,5.80
2019-01-16T22:19:08.822Z,5.80
2019-01-16T22:22:01.226Z,5.80
2019-01-16T22:24:53.999Z,5.80
2019-01-16T22:27:49.286Z,5.80
2019-01-16T22:30:31.622Z,5.90
2019-01-16T22:33:19.094Z,5.80
2019-01-16T22:36:11.611Z,5.90
2019-01-16T22:38:59.460Z,5.90
2019-01-16T22:41:35.585Z,5.80
2019-01-16T22:44:23.969Z,5.90
2019-01-16T22:47:17.322Z,5.90
2019-01-16T22:50:21.789Z,5.80
2019-01-16T22:53:11.079Z,5.90
2019-01-16T22:56:06.134Z,5.90
2019-01-16T22:59:01.142Z,5.90
2019-01-16T23:01:49.406Z,5.90
2019-01-16T23:05:10.028Z,6.00
2019-01-16T23:07:50.911Z,6.00
2019-01-16T23:10:47.705Z,6.00
2019-01-16T23:13:27.522Z,6.10
2019-01-16T23:16:15.262Z,6.10
2019-01-16T23:19:23.047Z,6.20
2019-01-16T23:22:21.687Z,6.10
2019-01-16T23:25:06.035Z,6.20
2019-01-16T23:28:05.225Z,6.20
2019-01-16T23:30:45.600Z,6.30
2019-01-16T23:33:33.650Z,6.20
2019-01-16T23:36:29.456Z,6.20
2019-01-16T23:39:24.690Z,6.30
2019-01-16T23:42:20.295Z,6.20
2019-01-16T23:45:09.494Z,6.20
2019-01-16T23:48:05.330Z,6.20
2019-01-16T23:50:53.457Z,6.20
2019-01-16T23:53:56.264Z,6.30
2019-01-16T23:56:41.122Z,6.30
2019-01-16T23:59:26.919Z,6.30
